createdAt,value
2018-09-21T00:00:00.243Z,3.67
2018-09-21T00:02:28.260Z,3.50
2018-09-21T00:04:56.221Z,3.50
2018-09-21T00:07:24.773Z,3.60
2018-09-21T00:09:52.726Z,3.40
2018-09-21T00:12:21.008Z,3.33
2018-09-21T00:14:48.993Z,3.77
2018-09-21T00:17:17.171Z,3.33
2018-09-21T00:19:45.167Z,4.10
2018-09-21T00:22:13.176Z,2.83
2018-09-21T00:24:41.111Z,3.30
2018-09-21T00:27:09.129Z,4.23
2018-09-21T00:29:37.080Z,3.33
2018-09-21T00:32:05.480Z,3.60
2018-09-21T00:34:33.400Z,3.30
2018-09-21T00:37:01.393Z,3.80
2018-09-21T00:39:29.416Z,3.37
2018-09-21T00:41:57.393Z,3.97
2018-09-21T00:44:25.401Z,3.50
2018-09-21T00:46:53.457Z,3.97
2018-09-21T00:49:21.564Z,3.63
2018-09-21T00:51:49.621Z,3.97
2018-09-21T00:54:17.587Z,3.70
2018-09-21T00:56:45.621Z,3.77
2018-09-21T00:59:13.646Z,3.90
2018-09-21T01:01:41.636Z,4.07
2018-09-21T01:04:09.626Z,3.83
2018-09-21T01:06:37.596Z,3.67
2018-09-21T01:09:08.462Z,4.33
2018-09-21T01:11:36.810Z,4.10
2018-09-21T01:14:04.792Z,3.50
2018-09-21T01:16:32.763Z,3.43
2018-09-21T01:19:00.926Z,4.23
2018-09-21T01:21:28.932Z,3.93
2018-09-21T01:23:57.101Z,3.90
2018-09-21T01:26:25.067Z,3.97
2018-09-21T01:28:53.291Z,3.80
2018-09-21T01:31:21.360Z,4.03
2018-09-21T01:33:49.454Z,3.93
2018-09-21T01:36:17.496Z,4.50
2018-09-21T01:38:45.589Z,4.20
2018-09-21T01:41:13.536Z,4.50
2018-09-21T01:43:41.587Z,3.57
2018-09-21T01:46:09.619Z,3.70
2018-09-21T01:48:37.621Z,4.07
2018-09-21T01:51:05.647Z,4.70
2018-09-21T01:53:33.708Z,4.60
2018-09-21T01:56:01.723Z,4.00
2018-09-21T01:58:29.734Z,4.33
2018-09-21T02:00:57.876Z,3.67
2018-09-21T02:03:25.940Z,4.60
2018-09-21T02:05:53.979Z,4.80
2018-09-21T02:08:21.954Z,4.33
2018-09-21T02:10:50.332Z,3.60
2018-09-21T02:13:18.539Z,4.50
2018-09-21T02:15:46.760Z,4.20
2018-09-21T02:18:14.899Z,4.70
2018-09-21T02:20:42.885Z,4.80
2018-09-21T02:23:11.363Z,4.73
2018-09-21T02:25:39.384Z,4.70
2018-09-21T02:28:07.685Z,4.70
2018-09-21T02:30:35.722Z,4.10
2018-09-21T02:33:03.843Z,4.17
2018-09-21T02:35:32.063Z,4.70
2018-09-21T02:38:00.166Z,4.40
2018-09-21T02:40:28.141Z,4.23
2018-09-21T02:42:56.131Z,4.20
2018-09-21T02:45:24.092Z,5.00
2018-09-21T02:47:52.480Z,5.07
2018-09-21T02:50:20.605Z,4.57
2018-09-21T02:52:48.708Z,4.87
2018-09-21T02:55:16.694Z,4.33
2018-09-21T02:57:44.732Z,4.83
2018-09-21T03:00:12.704Z,4.97
2018-09-21T03:02:40.798Z,5.03
2018-09-21T03:05:08.887Z,5.00
2018-09-21T03:07:36.874Z,5.00
2018-09-21T03:10:04.894Z,4.97
2018-09-21T03:12:32.892Z,4.57
2018-09-21T03:15:00.936Z,4.77
2018-09-21T03:17:28.904Z,4.87
2018-09-21T03:19:56.900Z,5.17
2018-09-21T03:22:24.887Z,4.63
2018-09-21T03:24:52.918Z,4.50
2018-09-21T03:27:20.894Z,4.73
2018-09-21T03:29:48.851Z,4.33
2018-09-21T03:32:16.866Z,4.83
2018-09-21T03:34:44.856Z,5.00
2018-09-21T03:37:12.854Z,4.90
2018-09-21T03:39:40.937Z,4.67
2018-09-21T03:42:08.895Z,5.20
2018-09-21T03:44:36.886Z,4.80
2018-09-21T03:47:04.836Z,4.60
2018-09-21T03:49:32.946Z,5.07
2018-09-21T03:52:01.000Z,4.67
2018-09-21T03:54:29.019Z,5.00
2018-09-21T03:56:56.952Z,5.20
2018-09-21T03:59:24.923Z,5.17
2018-09-21T04:01:52.895Z,4.23
2018-09-21T04:04:20.894Z,4.20
2018-09-21T04:06:48.929Z,4.83
2018-09-21T04:09:17.040Z,4.97
2018-09-21T04:11:45.050Z,4.47
2018-09-21T04:14:13.233Z,3.80
2018-09-21T04:16:41.193Z,4.60
2018-09-21T04:19:09.302Z,4.73
2018-09-21T04:21:37.256Z,4.67
2018-09-21T04:24:05.327Z,5.23
2018-09-21T04:26:33.289Z,4.63
2018-09-21T04:29:01.594Z,4.40
2018-09-21T04:31:29.900Z,4.30
2018-09-21T04:33:58.140Z,3.93
2018-09-21T04:36:26.149Z,4.33
2018-09-21T04:38:54.274Z,5.73
2018-09-21T04:41:22.410Z,4.10
2018-09-21T04:43:50.584Z,4.00
2018-09-21T04:46:18.754Z,4.97
2018-09-21T04:48:46.724Z,4.73
2018-09-21T04:51:14.916Z,3.90
2018-09-21T04:53:43.066Z,4.83
2018-09-21T04:56:11.230Z,4.80
2018-09-21T04:58:39.427Z,4.60
2018-09-21T05:01:07.622Z,4.13
2018-09-21T05:03:35.877Z,4.50
2018-09-21T05:06:04.048Z,4.50
2018-09-21T05:08:32.536Z,3.77
2018-09-21T05:11:01.096Z,4.20
2018-09-21T05:13:29.185Z,4.30
2018-09-21T05:15:57.477Z,4.17
2018-09-21T05:18:25.837Z,4.27
2018-09-21T05:20:54.079Z,4.47
2018-09-21T05:23:22.221Z,4.13
2018-09-21T05:25:51.802Z,4.80
2018-09-21T05:28:20.001Z,3.87
2018-09-21T05:30:48.600Z,4.43
2018-09-21T05:33:16.741Z,3.83
2018-09-21T05:35:44.987Z,4.30
2018-09-21T05:38:13.080Z,4.20
2018-09-21T05:40:41.280Z,3.90
2018-09-21T05:43:09.595Z,4.10
2018-09-21T05:45:37.840Z,3.90
2018-09-21T05:48:06.161Z,4.37
2018-09-21T05:50:34.408Z,4.10
2018-09-21T05:53:02.544Z,4.50
2018-09-21T05:55:30.812Z,4.30
2018-09-21T05:57:58.979Z,4.00
2018-09-21T06:00:27.295Z,4.70
2018-09-21T06:02:55.527Z,4.53
2018-09-21T06:05:23.860Z,4.00
2018-09-21T06:07:52.014Z,3.60
2018-09-21T06:10:20.270Z,4.47
2018-09-21T06:12:48.442Z,4.40
2018-09-21T06:15:16.718Z,4.30
2018-09-21T06:17:44.868Z,4.47
2018-09-21T06:20:13.172Z,4.20
2018-09-21T06:22:45.152Z,4.00
2018-09-21T06:25:09.630Z,4.03
2018-09-21T06:27:37.817Z,4.30
2018-09-21T06:30:07.296Z,4.63
2018-09-21T06:32:35.604Z,4.00
2018-09-21T06:35:03.903Z,3.90
2018-09-21T06:37:32.218Z,4.50
2018-09-21T06:40:00.718Z,4.27
2018-09-21T06:42:28.895Z,4.77
2018-09-21T06:44:57.193Z,4.57
2018-09-21T06:47:25.522Z,4.57
2018-09-21T06:49:53.711Z,4.10
2018-09-21T06:52:21.871Z,4.47
2018-09-21T06:54:49.998Z,4.67
2018-09-21T06:57:18.778Z,4.47
2018-09-21T06:59:46.950Z,4.03
2018-09-21T07:02:15.307Z,4.57
2018-09-21T07:04:43.528Z,3.90
2018-09-21T07:07:11.771Z,4.13
2018-09-21T07:09:39.932Z,4.13
2018-09-21T07:12:08.171Z,5.43
2018-09-21T07:14:36.396Z,6.17
2018-09-21T07:17:04.700Z,5.00
2018-09-21T07:19:32.877Z,4.47
2018-09-21T07:22:01.096Z,4.97
2018-09-21T07:24:29.248Z,5.63
2018-09-21T07:26:57.559Z,5.07
2018-09-21T07:29:25.717Z,4.63
2018-09-21T07:31:53.968Z,5.00
2018-09-21T07:34:22.197Z,5.00
2018-09-21T07:36:50.756Z,4.83
2018-09-21T07:39:18.851Z,4.77
2018-09-21T07:41:47.310Z,4.30
2018-09-21T07:44:15.509Z,4.03
2018-09-21T07:46:43.670Z,6.33
2018-09-21T07:49:11.758Z,5.13
2018-09-21T07:51:40.050Z,3.67
2018-09-21T07:54:08.249Z,5.30
2018-09-21T07:56:36.461Z,5.17
2018-09-21T07:59:04.649Z,5.33
2018-09-21T08:01:32.929Z,4.57
2018-09-21T08:04:01.130Z,4.77
2018-09-21T08:06:29.330Z,9.03
2018-09-21T08:08:57.534Z,4.47
2018-09-21T08:11:25.850Z,4.33
2018-09-21T08:13:53.981Z,4.60
2018-09-21T08:16:22.129Z,4.03
2018-09-21T08:18:50.269Z,4.33
2018-09-21T08:21:18.457Z,4.17
2018-09-21T08:23:46.798Z,3.90
2018-09-21T08:26:15.082Z,5.07
2018-09-21T08:28:43.513Z,4.27
2018-09-21T08:31:11.667Z,3.87
2018-09-21T08:33:39.958Z,3.60
2018-09-21T08:36:08.079Z,4.40
2018-09-21T08:38:36.310Z,3.40
2018-09-21T08:41:04.470Z,4.60
2018-09-21T08:43:32.727Z,3.17
2018-09-21T08:46:00.879Z,4.20
2018-09-21T08:48:28.970Z,3.70
2018-09-21T08:50:57.031Z,3.70
2018-09-21T08:53:25.250Z,3.50
2018-09-21T08:55:53.390Z,3.63
2018-09-21T08:58:21.659Z,3.47
2018-09-21T09:00:49.791Z,3.83
2018-09-21T09:03:18.004Z,3.40
2018-09-21T09:05:53.047Z,3.70
2018-09-21T09:08:22.442Z,6.97
2018-09-21T09:10:50.742Z,3.23
2018-09-21T09:13:19.623Z,3.43
2018-09-21T09:15:48.323Z,3.03
2018-09-21T09:18:16.494Z,3.13
2018-09-21T09:20:44.593Z,3.00
2018-09-21T09:23:12.798Z,3.30
2018-09-21T09:25:40.874Z,2.90
2018-09-21T09:28:09.076Z,4.73
2018-09-21T09:30:37.281Z,2.67
2018-09-21T09:33:05.530Z,2.40
2018-09-21T09:35:33.551Z,2.73
2018-09-21T09:38:01.900Z,2.40
2018-09-21T09:40:30.021Z,2.50
2018-09-21T09:42:58.336Z,2.90
2018-09-21T09:45:26.491Z,2.47
2018-09-21T09:47:54.655Z,2.63
2018-09-21T09:50:22.759Z,2.60
2018-09-21T09:52:50.942Z,2.87
2018-09-21T09:55:19.139Z,2.67
2018-09-21T09:57:47.339Z,3.23
2018-09-21T10:00:19.939Z,2.37
2018-09-21T10:02:48.258Z,2.23
2018-09-21T10:05:16.441Z,2.90
2018-09-21T10:07:44.614Z,2.57
2018-09-21T10:10:12.746Z,3.30
2018-09-21T10:12:41.026Z,3.60
2018-09-21T10:15:09.426Z,3.90
2018-09-21T10:17:37.637Z,3.87
2018-09-21T10:20:05.858Z,3.60
2018-09-21T10:22:34.061Z,3.00
2018-09-21T10:25:02.259Z,2.07
2018-09-21T10:27:30.583Z,2.27
2018-09-21T10:29:58.658Z,1.60
2018-09-21T10:32:26.651Z,2.20
2018-09-21T10:34:54.790Z,2.53
2018-09-21T10:37:22.881Z,1.90
2018-09-21T10:39:51.012Z,2.20
2018-09-21T10:42:19.209Z,1.97
2018-09-21T10:44:47.403Z,2.13
2018-09-21T10:47:15.612Z,2.30
2018-09-21T10:49:43.768Z,1.87
2018-09-21T10:52:11.859Z,2.67
2018-09-21T10:54:40.108Z,2.33
2018-09-21T10:57:08.223Z,1.90
2018-09-21T10:59:36.492Z,2.17
2018-09-21T11:02:04.605Z,3.73
2018-09-21T11:04:32.842Z,3.00
2018-09-21T11:07:01.015Z,2.93
2018-09-21T11:09:29.291Z,3.17
2018-09-21T11:11:57.383Z,3.43
2018-09-21T11:14:25.532Z,2.63
2018-09-21T11:16:53.639Z,2.33
2018-09-21T11:19:21.825Z,2.40
2018-09-21T11:21:50.230Z,1.93
2018-09-21T11:24:18.532Z,2.10
2018-09-21T11:26:46.671Z,2.90
2018-09-21T11:29:14.863Z,2.37
2018-09-21T11:31:42.992Z,2.03
2018-09-21T11:34:11.192Z,2.03
2018-09-21T11:36:39.332Z,1.90
2018-09-21T11:39:09.091Z,2.10
2018-09-21T11:41:37.203Z,1.77
2018-09-21T11:44:05.445Z,1.57
2018-09-21T11:46:33.826Z,1.83
2018-09-21T11:49:02.043Z,1.73
2018-09-21T11:51:30.251Z,1.90
2018-09-21T11:53:58.405Z,1.73
2018-09-21T11:56:26.632Z,2.40
2018-09-21T11:58:54.823Z,2.17
2018-09-21T12:01:22.943Z,1.67
2018-09-21T12:03:51.284Z,1.80
2018-09-21T12:06:19.452Z,1.73
2018-09-21T12:08:48.298Z,2.20
2018-09-21T12:11:16.444Z,3.50
2018-09-21T12:13:44.632Z,2.20
2018-09-21T12:16:12.808Z,1.70
2018-09-21T12:18:41.812Z,2.20
2018-09-21T12:21:09.979Z,2.33
2018-09-21T12:23:38.146Z,1.87
2018-09-21T12:26:06.424Z,2.43
2018-09-21T12:28:34.552Z,2.27
2018-09-21T12:31:02.748Z,1.90
2018-09-21T12:33:30.863Z,2.30
2018-09-21T12:35:59.068Z,2.40
2018-09-21T12:38:27.221Z,2.37
2018-09-21T12:40:56.292Z,2.60
2018-09-21T12:43:24.292Z,2.50
2018-09-21T12:45:52.500Z,2.80
2018-09-21T12:48:20.644Z,2.90
2018-09-21T12:50:48.829Z,2.70
2018-09-21T12:53:16.938Z,2.77
2018-09-21T12:55:49.513Z,2.90
2018-09-21T12:58:17.803Z,3.00
2018-09-21T13:00:51.692Z,3.07
2018-09-21T13:03:20.832Z,3.10
2018-09-21T13:05:53.405Z,3.67
2018-09-21T13:08:22.512Z,2.87
2018-09-21T13:10:50.804Z,3.43
2018-09-21T13:13:18.912Z,3.43
2018-09-21T13:15:47.143Z,3.70
2018-09-21T13:18:16.012Z,3.70
2018-09-21T13:20:44.293Z,3.87
2018-09-21T13:23:12.372Z,3.93
2018-09-21T13:25:40.611Z,4.03
2018-09-21T13:28:08.792Z,3.80
2018-09-21T13:30:36.924Z,3.80
2018-09-21T13:33:05.183Z,4.20
2018-09-21T13:35:33.440Z,4.13
2018-09-21T13:38:01.612Z,4.17
2018-09-21T13:40:29.831Z,4.83
2018-09-21T13:42:58.012Z,4.57
2018-09-21T13:45:26.212Z,4.70
2018-09-21T13:47:54.967Z,4.40
2018-09-21T13:50:23.552Z,4.60
2018-09-21T13:52:51.672Z,3.40
2018-09-21T13:55:19.872Z,3.60
2018-09-21T13:57:47.883Z,2.97
2018-09-21T14:00:16.275Z,2.13
2018-09-21T14:02:44.372Z,2.30
2018-09-21T14:05:12.792Z,1.83
2018-09-21T14:07:41.692Z,4.20
2018-09-21T14:10:10.472Z,1.43
2018-09-21T14:12:38.923Z,1.73
2018-09-21T14:15:07.212Z,1.10
2018-09-21T14:17:35.373Z,1.50
2018-09-21T14:20:03.632Z,1.50
2018-09-21T14:22:31.823Z,1.53
2018-09-21T14:25:00.000Z,1.23
2018-09-21T14:27:28.092Z,1.07
2018-09-21T14:29:56.132Z,1.10
2018-09-21T14:32:24.331Z,1.00
2018-09-21T14:34:52.431Z,1.07
2018-09-21T14:37:20.604Z,0.90
2018-09-21T14:39:48.732Z,1.20
2018-09-21T14:42:16.852Z,0.80
2018-09-21T14:44:44.884Z,1.20
2018-09-21T14:47:13.213Z,0.60
2018-09-21T14:49:41.382Z,0.90
2018-09-21T14:52:09.595Z,1.00
2018-09-21T14:54:37.752Z,0.80
2018-09-21T14:57:05.926Z,0.70
2018-09-21T14:59:33.953Z,1.07
2018-09-21T15:02:02.164Z,0.43
2018-09-21T15:04:30.212Z,0.60
2018-09-21T15:06:58.624Z,0.93
2018-09-21T15:09:26.752Z,0.70
2018-09-21T15:11:54.972Z,0.93
2018-09-21T15:14:23.124Z,0.67
2018-09-21T15:16:51.312Z,0.60
2018-09-21T15:19:19.368Z,0.70
2018-09-21T15:21:47.594Z,0.60
2018-09-21T15:24:15.732Z,0.70
2018-09-21T15:26:43.992Z,1.23
2018-09-21T15:29:12.112Z,0.87
2018-09-21T15:31:40.284Z,0.70
2018-09-21T15:34:08.572Z,0.53
2018-09-21T15:36:36.872Z,0.80
2018-09-21T15:39:08.012Z,0.70
2018-09-21T15:41:35.994Z,1.17
2018-09-21T15:44:03.958Z,1.17
2018-09-21T15:46:32.038Z,0.90
2018-09-21T15:49:00.088Z,0.70
2018-09-21T15:51:28.088Z,1.00
2018-09-21T15:53:56.061Z,0.83
2018-09-21T15:56:24.027Z,0.80
2018-09-21T15:58:52.097Z,0.83
2018-09-21T16:01:20.097Z,0.97
2018-09-21T16:03:49.216Z,0.70
2018-09-21T16:06:17.691Z,0.53
2018-09-21T16:08:46.088Z,0.63
2018-09-21T16:11:14.327Z,0.80
2018-09-21T16:13:42.211Z,0.70
2018-09-21T16:16:10.276Z,0.60
2018-09-21T16:18:38.284Z,0.57
2018-09-21T16:21:06.372Z,0.60
2018-09-21T16:23:34.480Z,0.70
2018-09-21T16:26:02.625Z,0.60
2018-09-21T16:28:30.793Z,0.67
2018-09-21T16:30:58.718Z,0.50
2018-09-21T16:33:26.942Z,0.63
2018-09-21T16:35:54.960Z,0.80
2018-09-21T16:38:23.003Z,0.70
2018-09-21T16:40:50.985Z,0.60
2018-09-21T16:43:19.178Z,0.63
2018-09-21T16:45:47.223Z,0.60
2018-09-21T16:48:15.235Z,0.80
2018-09-21T16:50:43.244Z,0.67
2018-09-21T16:53:11.220Z,0.90
2018-09-21T16:55:39.473Z,0.67
2018-09-21T16:58:07.523Z,0.80
2018-09-21T17:00:35.552Z,1.33
2018-09-21T17:03:03.646Z,0.60
2018-09-21T17:05:31.673Z,1.00
2018-09-21T17:07:59.766Z,0.90
2018-09-21T17:10:27.782Z,0.70
2018-09-21T17:12:55.855Z,1.10
2018-09-21T17:15:23.754Z,0.90
2018-09-21T17:17:52.011Z,0.77
2018-09-21T17:20:20.002Z,1.20
2018-09-21T17:22:47.992Z,0.80
2018-09-21T17:25:15.992Z,0.70
2018-09-21T17:27:43.971Z,1.03
2018-09-21T17:30:12.197Z,1.00
2018-09-21T17:32:40.406Z,0.70
2018-09-21T17:35:08.252Z,0.73
2018-09-21T17:37:36.342Z,0.67
2018-09-21T17:40:04.333Z,0.90
2018-09-21T17:42:32.507Z,0.73
2018-09-21T17:45:00.533Z,0.87
2018-09-21T17:47:28.526Z,0.70
2018-09-21T17:49:56.577Z,1.10
2018-09-21T17:52:24.588Z,1.00
2018-09-21T17:54:52.648Z,0.87
2018-09-21T17:57:20.674Z,0.70
2018-09-21T17:59:48.832Z,0.80
2018-09-21T18:02:17.053Z,0.60
2018-09-21T18:04:45.165Z,0.97
2018-09-21T18:07:21.883Z,0.90
2018-09-21T18:09:51.621Z,0.87
2018-09-21T18:12:19.954Z,0.73
2018-09-21T18:14:50.013Z,0.83
2018-09-21T18:17:18.181Z,1.00
2018-09-21T18:19:46.381Z,0.70
2018-09-21T18:22:14.356Z,0.67
2018-09-21T18:24:42.333Z,0.80
2018-09-21T18:27:10.812Z,1.10
2018-09-21T18:29:39.421Z,0.70
2018-09-21T18:32:07.905Z,1.13
2018-09-21T18:34:35.911Z,0.60
2018-09-21T18:37:03.909Z,0.67
2018-09-21T18:39:31.985Z,1.10
2018-09-21T18:41:59.988Z,1.07
2018-09-21T18:44:28.031Z,0.90
2018-09-21T18:46:56.064Z,0.90
2018-09-21T18:49:24.089Z,0.97
2018-09-21T18:51:52.123Z,0.97
2018-09-21T18:54:20.194Z,0.80
2018-09-21T18:56:48.468Z,0.90
2018-09-21T18:59:16.656Z,0.80
2018-09-21T19:01:44.765Z,0.80
2018-09-21T19:04:13.085Z,0.70
2018-09-21T19:06:41.226Z,0.90
2018-09-21T19:09:11.044Z,1.10
2018-09-21T19:11:39.325Z,1.10
2018-09-21T19:14:07.576Z,1.03
2018-09-21T19:16:35.722Z,0.80
2018-09-21T19:19:03.867Z,1.10
2018-09-21T19:21:31.836Z,0.97
2018-09-21T19:23:59.833Z,0.90
2018-09-21T19:26:28.195Z,0.90
2018-09-21T19:28:56.228Z,1.40
2018-09-21T19:31:24.250Z,1.30
2018-09-21T19:33:52.460Z,0.90
2018-09-21T19:36:20.828Z,1.20
2018-09-21T19:38:48.832Z,1.00
2018-09-21T19:41:16.821Z,1.03
2018-09-21T19:43:45.012Z,0.90
2018-09-21T19:46:13.101Z,1.10
2018-09-21T19:48:43.562Z,1.17
2018-09-21T19:51:14.353Z,1.00
2018-09-21T19:53:44.415Z,1.03
2018-09-21T19:56:13.837Z,1.17
2018-09-21T19:58:44.976Z,0.90
2018-09-21T20:01:13.294Z,1.07
2018-09-21T20:03:41.553Z,1.10
2018-09-21T20:06:09.741Z,0.87
2018-09-21T20:08:37.864Z,0.77
2018-09-21T20:11:06.257Z,1.00
2018-09-21T20:13:34.380Z,1.10
2018-09-21T20:16:02.557Z,0.93
2018-09-21T20:18:30.590Z,1.47
2018-09-21T20:20:58.631Z,1.43
2018-09-21T20:23:26.652Z,1.03
2018-09-21T20:25:54.840Z,1.00
2018-09-21T20:28:23.065Z,1.07
2018-09-21T20:30:56.848Z,1.33
2018-09-21T20:33:28.388Z,1.17
2018-09-21T20:36:03.861Z,1.50
2018-09-21T20:38:34.576Z,1.23
2018-09-21T20:43:52.286Z,1.63
2018-09-21T20:46:24.051Z,1.33
2018-09-21T20:48:57.883Z,1.10
2018-09-21T20:51:34.236Z,1.53
2018-09-21T20:54:16.183Z,1.60
2018-09-21T20:57:26.187Z,1.60
2018-09-21T21:00:02.106Z,1.33
2018-09-21T21:02:33.874Z,1.40
2018-09-21T21:05:14.032Z,1.43
2018-09-21T21:07:47.062Z,1.50
2018-09-21T21:10:15.385Z,1.70
2018-09-21T21:12:47.397Z,1.60
2018-09-21T21:15:15.587Z,1.67
2018-09-21T21:17:45.892Z,1.90
2018-09-21T21:20:14.923Z,2.47
2018-09-21T21:22:43.168Z,1.83
2018-09-21T21:25:12.212Z,2.37
2018-09-21T21:27:41.329Z,1.90
2018-09-21T21:33:56.924Z,1.80
2018-09-21T21:36:24.976Z,1.80
2018-09-21T21:38:53.001Z,2.13
2018-09-21T21:41:20.980Z,1.43
2018-09-21T21:43:48.964Z,1.60
2018-09-21T21:46:17.029Z,1.53
2018-09-21T21:48:45.356Z,1.70
2018-09-21T21:51:13.552Z,1.37
2018-09-21T21:53:41.656Z,1.60
2018-09-21T21:56:09.727Z,1.87
2018-09-21T21:58:37.726Z,2.00
2018-09-21T22:01:12.221Z,1.77
2018-09-21T22:03:43.185Z,2.13
2018-09-21T22:06:11.301Z,1.90
2018-09-21T22:08:39.441Z,1.40
2018-09-21T22:12:11.815Z,1.73
2018-09-21T22:14:39.827Z,2.00
2018-09-21T22:17:08.212Z,1.97
2018-09-21T22:19:36.155Z,2.07
2018-09-21T22:22:04.287Z,1.70
2018-09-21T22:24:32.282Z,1.80
2018-09-21T22:27:00.413Z,2.10
2018-09-21T22:29:28.533Z,1.90
2018-09-21T22:31:56.539Z,2.40
2018-09-21T22:34:24.547Z,2.27
2018-09-21T22:36:55.475Z,2.40
2018-09-21T22:39:23.550Z,1.60
2018-09-21T22:41:51.894Z,2.07
2018-09-21T22:44:19.924Z,2.47
2018-09-21T22:46:47.941Z,2.53
2018-09-21T22:49:19.746Z,2.90
2018-09-21T22:51:47.930Z,2.23
2018-09-21T22:54:15.930Z,1.90
2018-09-21T22:56:44.185Z,3.13
2018-09-21T22:59:12.304Z,2.57
2018-09-21T23:01:40.342Z,2.83
2018-09-21T23:04:08.255Z,3.00
2018-09-21T23:06:38.235Z,3.20
2018-09-21T23:09:12.260Z,2.73
2018-09-21T23:11:42.340Z,3.17
2018-09-21T23:14:10.786Z,3.00
2018-09-21T23:16:40.461Z,3.43
2018-09-21T23:19:09.226Z,4.00
2018-09-21T23:21:37.781Z,4.13
2018-09-21T23:24:05.790Z,4.87
2018-09-21T23:26:34.451Z,5.57
2018-09-21T23:29:02.492Z,4.50
2018-09-21T23:31:30.561Z,5.40
2018-09-21T23:33:58.510Z,5.13
2018-09-21T23:36:26.603Z,4.70
2018-09-21T23:38:54.545Z,4.50
2018-09-21T23:41:22.652Z,3.77
2018-09-21T23:43:50.737Z,3.37
2018-09-21T23:46:19.053Z,3.40
2018-09-21T23:48:47.165Z,3.23
2018-09-21T23:51:15.545Z,3.43
2018-09-21T23:53:43.471Z,2.87
2018-09-21T23:56:11.450Z,3.07
2018-09-21T23:58:39.473Z,2.87
